sensor_id;sensor_type;location;lat;lon;timestamp;P1;durP1;ratioP1;P2;durP2;ratioP2
53391;SDS011;41667;51.922;8.850;2022-07-12T00:01:49;1.55;;;1.45;;
53391;SDS011;41667;51.922;8.850;2022-07-12T00:04:14;1.85;;;1.75;;
53391;SDS011;41667;51.922;8.850;2022-07-12T00:06:39;1.63;;;1.52;;
53391;SDS011;41667;51.922;8.850;2022-07-12T00:09:04;1.57;;;1.47;;
53391;SDS011;41667;51.922;8.850;2022-07-12T00:11:30;1.90;;;1.77;;
53391;SDS011;41667;51.922;8.850;2022-07-12T00:13:55;1.63;;;1.58;;
53391;SDS011;41667;51.922;8.850;2022-07-12T00:16:21;2.13;;;1.50;;
53391;SDS011;41667;51.922;8.850;2022-07-12T00:18:47;1.63;;;1.40;;
53391;SDS011;41667;51.922;8.850;2022-07-12T00:21:12;1.70;;;1.60;;
53391;SDS011;41667;51.922;8.850;2022-07-12T00:23:37;3.25;;;1.50;;
53391;SDS011;41667;51.922;8.850;2022-07-12T00:26:03;1.95;;;1.52;;
53391;SDS011;41667;51.922;8.850;2022-07-12T00:28:32;1.63;;;1.52;;
53391;SDS011;41667;51.922;8.850;2022-07-12T00:30:57;1.90;;;1.80;;
53391;SDS011;41667;51.922;8.850;2022-07-12T00:33:22;2.53;;;1.88;;
53391;SDS011;41667;51.922;8.850;2022-07-12T00:35:48;1.63;;;1.52;;
53391;SDS011;41667;51.922;8.850;2022-07-12T00:38:13;2.00;;;1.60;;
53391;SDS011;41667;51.922;8.850;2022-07-12T00:40:38;1.58;;;1.40;;
53391;SDS011;41667;51.922;8.850;2022-07-12T00:43:03;1.80;;;1.70;;
53391;SDS011;41667;51.922;8.850;2022-07-12T00:45:28;1.73;;;1.63;;
53391;SDS011;41667;51.922;8.850;2022-07-12T00:47:54;2.70;;;1.60;;
53391;SDS011;41667;51.922;8.850;2022-07-12T00:50:22;3.10;;;1.80;;
53391;SDS011;41667;51.922;8.850;2022-07-12T00:52:48;4.55;;;1.70;;
53391;SDS011;41667;51.922;8.850;2022-07-12T00:55:14;1.75;;;1.60;;
53391;SDS011;41667;51.922;8.850;2022-07-12T00:57:39;2.40;;;1.58;;
53391;SDS011;41667;51.922;8.850;2022-07-12T01:00:06;1.58;;;1.48;;
53391;SDS011;41667;51.922;8.850;2022-07-12T01:02:32;2.30;;;1.35;;
53391;SDS011;41667;51.922;8.850;2022-07-12T01:04:57;4.20;;;1.53;;
53391;SDS011;41667;51.922;8.850;2022-07-12T01:07:22;2.70;;;1.48;;
53391;SDS011;41667;51.922;8.850;2022-07-12T01:09:51;1.55;;;1.45;;
53391;SDS011;41667;51.922;8.850;2022-07-12T01:12:16;2.80;;;1.33;;
53391;SDS011;41667;51.922;8.850;2022-07-12T01:14:42;1.85;;;1.20;;
53391;SDS011;41667;51.922;8.850;2022-07-12T01:17:08;1.58;;;1.48;;
53391;SDS011;41667;51.922;8.850;2022-07-12T01:19:33;1.40;;;1.30;;
53391;SDS011;41667;51.922;8.850;2022-07-12T01:21:59;1.17;;;1.17;;
53391;SDS011;41667;51.922;8.850;2022-07-12T01:24:26;1.83;;;1.50;;
53391;SDS011;41667;51.922;8.850;2022-07-12T01:26:51;3.00;;;1.63;;
53391;SDS011;41667;51.922;8.850;2022-07-12T01:29:16;1.77;;;1.67;;
53391;SDS011;41667;51.922;8.850;2022-07-12T01:31:41;1.60;;;1.50;;
53391;SDS011;41667;51.922;8.850;2022-07-12T01:34:06;3.00;;;1.80;;
53391;SDS011;41667;51.922;8.850;2022-07-12T01:36:32;1.45;;;1.42;;
53391;SDS011;41667;51.922;8.850;2022-07-12T01:38:57;2.22;;;1.60;;
53391;SDS011;41667;51.922;8.850;2022-07-12T01:41:23;1.60;;;1.30;;
53391;SDS011;41667;51.922;8.850;2022-07-12T01:43:48;8.63;;;2.13;;
53391;SDS011;41667;51.922;8.850;2022-07-12T01:46:14;1.73;;;1.63;;
53391;SDS011;41667;51.922;8.850;2022-07-12T01:48:39;3.65;;;1.50;;
53391;SDS011;41667;51.922;8.850;2022-07-12T01:51:04;2.77;;;1.70;;
53391;SDS011;41667;51.922;8.850;2022-07-12T01:53:30;1.80;;;1.70;;
53391;SDS011;41667;51.922;8.850;2022-07-12T01:55:55;4.53;;;1.60;;
53391;SDS011;41667;51.922;8.850;2022-07-12T01:58:20;1.45;;;1.35;;
53391;SDS011;41667;51.922;8.850;2022-07-12T02:00:45;1.77;;;1.67;;
53391;SDS011;41667;51.922;8.850;2022-07-12T02:03:16;2.20;;;1.63;;
53391;SDS011;41667;51.922;8.850;2022-07-12T02:05:41;1.70;;;1.60;;
53391;SDS011;41667;51.922;8.850;2022-07-12T02:08:06;3.78;;;1.88;;
53391;SDS011;41667;51.922;8.850;2022-07-12T02:10:31;3.53;;;1.65;;
53391;SDS011;41667;51.922;8.850;2022-07-12T02:12:56;3.20;;;1.73;;
53391;SDS011;41667;51.922;8.850;2022-07-12T02:15:24;2.28;;;1.30;;
53391;SDS011;41667;51.922;8.850;2022-07-12T02:17:49;1.57;;;1.40;;
53391;SDS011;41667;51.922;8.850;2022-07-12T02:20:14;2.90;;;1.70;;
53391;SDS011;41667;51.922;8.850;2022-07-12T02:22:39;1.88;;;1.50;;
53391;SDS011;41667;51.922;8.850;2022-07-12T02:25:04;1.60;;;1.50;;
53391;SDS011;41667;51.922;8.850;2022-07-12T02:27:30;1.50;;;1.40;;
53391;SDS011;41667;51.922;8.850;2022-07-12T02:29:55;2.95;;;1.80;;
53391;SDS011;41667;51.922;8.850;2022-07-12T02:32:20;1.60;;;1.50;;
53391;SDS011;41667;51.922;8.850;2022-07-12T02:34:45;1.63;;;1.52;;
53391;SDS011;41667;51.922;8.850;2022-07-12T02:37:10;1.50;;;1.40;;
53391;SDS011;41667;51.922;8.850;2022-07-12T02:39:35;1.77;;;1.67;;
53391;SDS011;41667;51.922;8.850;2022-07-12T02:42:00;2.07;;;1.97;;
53391;SDS011;41667;51.922;8.850;2022-07-12T02:44:26;2.10;;;2.00;;
53391;SDS011;41667;51.922;8.850;2022-07-12T02:46:51;1.73;;;1.63;;
53391;SDS011;41667;51.922;8.850;2022-07-12T02:49:16;1.83;;;1.63;;
53391;SDS011;41667;51.922;8.850;2022-07-12T02:51:41;1.70;;;1.60;;
53391;SDS011;41667;51.922;8.850;2022-07-12T02:54:06;2.63;;;1.40;;
53391;SDS011;41667;51.922;8.850;2022-07-12T02:56:31;1.63;;;1.52;;
53391;SDS011;41667;51.922;8.850;2022-07-12T02:58:56;1.77;;;1.55;;
53391;SDS011;41667;51.922;8.850;2022-07-12T03:01:21;3.10;;;1.73;;
53391;SDS011;41667;51.922;8.850;2022-07-12T03:03:47;1.70;;;1.60;;
53391;SDS011;41667;51.922;8.850;2022-07-12T03:06:12;2.15;;;1.83;;
53391;SDS011;41667;51.922;8.850;2022-07-12T03:08:37;1.50;;;1.20;;
53391;SDS011;41667;51.922;8.850;2022-07-12T03:11:03;1.98;;;1.70;;
53391;SDS011;41667;51.922;8.850;2022-07-12T03:13:28;4.87;;;2.20;;
53391;SDS011;41667;51.922;8.850;2022-07-12T03:15:53;2.90;;;1.77;;
53391;SDS011;41667;51.922;8.850;2022-07-12T03:18:18;2.72;;;1.55;;
53391;SDS011;41667;51.922;8.850;2022-07-12T03:20:43;1.45;;;1.35;;
53391;SDS011;41667;51.922;8.850;2022-07-12T03:23:08;1.70;;;1.60;;
53391;SDS011;41667;51.922;8.850;2022-07-12T03:25:34;1.63;;;1.52;;
53391;SDS011;41667;51.922;8.850;2022-07-12T03:27:59;1.42;;;1.27;;
53391;SDS011;41667;51.922;8.850;2022-07-12T03:30:24;2.25;;;2.05;;
53391;SDS011;41667;51.922;8.850;2022-07-12T03:32:49;3.42;;;1.40;;
53391;SDS011;41667;51.922;8.850;2022-07-12T03:35:14;1.90;;;1.80;;
53391;SDS011;41667;51.922;8.850;2022-07-12T03:40:05;3.33;;;1.77;;
53391;SDS011;41667;51.922;8.850;2022-07-12T03:42:30;2.50;;;1.98;;
53391;SDS011;41667;51.922;8.850;2022-07-12T03:44:55;2.10;;;1.90;;
53391;SDS011;41667;51.922;8.850;2022-07-12T03:47:20;2.15;;;1.73;;
53391;SDS011;41667;51.922;8.850;2022-07-12T03:49:46;2.22;;;1.63;;
53391;SDS011;41667;51.922;8.850;2022-07-12T03:52:11;2.60;;;1.73;;
53391;SDS011;41667;51.922;8.850;2022-07-12T03:54:36;1.73;;;1.63;;
53391;SDS011;41667;51.922;8.850;2022-07-12T03:57:01;3.95;;;1.75;;
53391;SDS011;41667;51.922;8.850;2022-07-12T03:59:38;1.70;;;1.40;;
53391;SDS011;41667;51.922;8.850;2022-07-12T04:02:03;2.03;;;1.83;;
53391;SDS011;41667;51.922;8.850;2022-07-12T04:04:28;3.15;;;2.20;;
53391;SDS011;41667;51.922;8.850;2022-07-12T04:06:54;1.80;;;1.70;;
53391;SDS011;41667;51.922;8.850;2022-07-12T04:09:19;2.20;;;2.10;;
53391;SDS011;41667;51.922;8.850;2022-07-12T04:11:44;2.67;;;2.47;;
53391;SDS011;41667;51.922;8.850;2022-07-12T04:14:09;3.22;;;2.53;;
53391;SDS011;41667;51.922;8.850;2022-07-12T04:16:34;2.65;;;2.20;;
53391;SDS011;41667;51.922;8.850;2022-07-12T04:19:00;2.13;;;1.95;;
53391;SDS011;41667;51.922;8.850;2022-07-12T04:21:25;4.75;;;2.38;;
53391;SDS011;41667;51.922;8.850;2022-07-12T04:23:50;3.00;;;2.28;;
53391;SDS011;41667;51.922;8.850;2022-07-12T04:26:15;2.85;;;2.63;;
53391;SDS011;41667;51.922;8.850;2022-07-12T04:28:40;2.87;;;2.60;;
53391;SDS011;41667;51.922;8.850;2022-07-12T04:31:06;3.50;;;2.87;;
53391;SDS011;41667;51.922;8.850;2022-07-12T04:33:31;3.05;;;2.38;;
53391;SDS011;41667;51.922;8.850;2022-07-12T04:35:57;3.67;;;2.55;;
53391;SDS011;41667;51.922;8.850;2022-07-12T04:38:22;2.65;;;2.45;;
53391;SDS011;41667;51.922;8.850;2022-07-12T04:40:47;5.85;;;2.00;;
53391;SDS011;41667;51.922;8.850;2022-07-12T04:43:12;2.53;;;2.33;;
53391;SDS011;41667;51.922;8.850;2022-07-12T04:45:37;2.15;;;2.05;;
53391;SDS011;41667;51.922;8.850;2022-07-12T04:48:03;2.28;;;2.03;;
53391;SDS011;41667;51.922;8.850;2022-07-12T04:50:28;3.73;;;2.33;;
53391;SDS011;41667;51.922;8.850;2022-07-12T04:52:53;1.95;;;1.80;;
53391;SDS011;41667;51.922;8.850;2022-07-12T04:55:18;2.38;;;2.17;;
53391;SDS011;41667;51.922;8.850;2022-07-12T04:57:43;2.90;;;2.60;;
53391;SDS011;41667;51.922;8.850;2022-07-12T05:00:08;3.78;;;2.35;;
53391;SDS011;41667;51.922;8.850;2022-07-12T05:02:34;3.15;;;2.17;;
53391;SDS011;41667;51.922;8.850;2022-07-12T05:04:59;3.87;;;1.70;;
53391;SDS011;41667;51.922;8.850;2022-07-12T05:07:24;2.40;;;1.92;;
53391;SDS011;41667;51.922;8.850;2022-07-12T05:09:49;6.25;;;2.65;;
53391;SDS011;41667;51.922;8.850;2022-07-12T05:12:16;7.40;;;2.80;;
53391;SDS011;41667;51.922;8.850;2022-07-12T05:14:41;10.77;;;3.13;;
53391;SDS011;41667;51.922;8.850;2022-07-12T05:17:06;4.72;;;3.25;;
53391;SDS011;41667;51.922;8.850;2022-07-12T05:19:31;9.13;;;3.15;;
53391;SDS011;41667;51.922;8.850;2022-07-12T05:21:56;16.20;;;3.22;;
53391;SDS011;41667;51.922;8.850;2022-07-12T05:24:22;4.22;;;2.65;;
53391;SDS011;41667;51.922;8.850;2022-07-12T05:26:47;7.60;;;3.60;;
53391;SDS011;41667;51.922;8.850;2022-07-12T05:29:12;6.25;;;3.63;;
53391;SDS011;41667;51.922;8.850;2022-07-12T05:31:37;10.30;;;3.40;;
53391;SDS011;41667;51.922;8.850;2022-07-12T05:34:02;8.88;;;3.47;;
53391;SDS011;41667;51.922;8.850;2022-07-12T05:36:28;3.33;;;3.03;;
53391;SDS011;41667;51.922;8.850;2022-07-12T05:38:53;3.95;;;3.22;;
53391;SDS011;41667;51.922;8.850;2022-07-12T05:41:18;5.20;;;3.87;;
53391;SDS011;41667;51.922;8.850;2022-07-12T05:43:43;5.32;;;3.80;;
53391;SDS011;41667;51.922;8.850;2022-07-12T05:46:11;11.27;;;4.30;;
53391;SDS011;41667;51.922;8.850;2022-07-12T05:48:37;6.85;;;4.28;;
53391;SDS011;41667;51.922;8.850;2022-07-12T05:51:02;9.00;;;4.75;;
53391;SDS011;41667;51.922;8.850;2022-07-12T05:53:46;11.60;;;4.63;;
53391;SDS011;41667;51.922;8.850;2022-07-12T05:56:11;6.63;;;4.90;;
53391;SDS011;41667;51.922;8.850;2022-07-12T05:58:37;8.60;;;5.03;;
53391;SDS011;41667;51.922;8.850;2022-07-12T06:01:02;14.57;;;5.20;;
53391;SDS011;41667;51.922;8.850;2022-07-12T06:03:27;5.73;;;5.17;;
53391;SDS011;41667;51.922;8.850;2022-07-12T06:05:53;6.97;;;5.57;;
53391;SDS011;41667;51.922;8.850;2022-07-12T06:08:18;8.00;;;6.13;;
53391;SDS011;41667;51.922;8.850;2022-07-12T06:10:43;8.93;;;5.30;;
53391;SDS011;41667;51.922;8.850;2022-07-12T06:13:09;5.97;;;5.38;;
53391;SDS011;41667;51.922;8.850;2022-07-12T06:15:34;6.03;;;5.43;;
53391;SDS011;41667;51.922;8.850;2022-07-12T06:18:00;8.63;;;5.25;;
53391;SDS011;41667;51.922;8.850;2022-07-12T06:20:25;5.55;;;5.05;;
53391;SDS011;41667;51.922;8.850;2022-07-12T06:22:50;4.95;;;4.47;;
53391;SDS011;41667;51.922;8.850;2022-07-12T06:25:15;5.70;;;5.20;;
53391;SDS011;41667;51.922;8.850;2022-07-12T06:27:40;5.40;;;4.90;;
53391;SDS011;41667;51.922;8.850;2022-07-12T06:30:06;5.43;;;4.88;;
53391;SDS011;41667;51.922;8.850;2022-07-12T06:32:31;4.90;;;4.40;;
53391;SDS011;41667;51.922;8.850;2022-07-12T06:34:56;6.35;;;5.60;;
53391;SDS011;41667;51.922;8.850;2022-07-12T06:37:22;8.80;;;6.10;;
53391;SDS011;41667;51.922;8.850;2022-07-12T06:39:47;5.85;;;4.90;;
53391;SDS011;41667;51.922;8.850;2022-07-12T06:42:13;6.85;;;5.38;;
53391;SDS011;41667;51.922;8.850;2022-07-12T06:44:38;4.93;;;4.50;;
53391;SDS011;41667;51.922;8.850;2022-07-12T06:47:03;6.05;;;4.70;;
53391;SDS011;41667;51.922;8.850;2022-07-12T06:49:28;4.47;;;4.07;;
53391;SDS011;41667;51.922;8.850;2022-07-12T06:51:53;6.45;;;4.70;;
53391;SDS011;41667;51.922;8.850;2022-07-12T06:54:19;6.22;;;4.30;;
53391;SDS011;41667;51.922;8.850;2022-07-12T06:56:44;4.75;;;4.30;;
53391;SDS011;41667;51.922;8.850;2022-07-12T06:59:09;5.63;;;4.45;;
53391;SDS011;41667;51.922;8.850;2022-07-12T07:01:36;4.25;;;3.83;;
53391;SDS011;41667;51.922;8.850;2022-07-12T07:04:01;3.38;;;3.15;;
53391;SDS011;41667;51.922;8.850;2022-07-12T07:06:26;3.80;;;3.50;;
53391;SDS011;41667;51.922;8.850;2022-07-12T07:08:51;3.65;;;3.35;;
53391;SDS011;41667;51.922;8.850;2022-07-12T07:11:16;3.63;;;3.28;;
53391;SDS011;41667;51.922;8.850;2022-07-12T07:13:41;4.32;;;3.33;;
53391;SDS011;41667;51.922;8.850;2022-07-12T07:16:06;3.97;;;3.35;;
53391;SDS011;41667;51.922;8.850;2022-07-12T07:18:32;4.10;;;2.60;;
53391;SDS011;41667;51.922;8.850;2022-07-12T07:20:58;1.80;;;1.70;;
53391;SDS011;41667;51.922;8.850;2022-07-12T07:23:23;2.70;;;2.50;;
53391;SDS011;41667;51.922;8.850;2022-07-12T07:25:48;2.30;;;2.10;;
53391;SDS011;41667;51.922;8.850;2022-07-12T07:28:13;3.10;;;2.90;;
53391;SDS011;41667;51.922;8.850;2022-07-12T07:30:38;2.10;;;2.00;;
53391;SDS011;41667;51.922;8.850;2022-07-12T07:33:19;3.42;;;2.22;;
53391;SDS011;41667;51.922;8.850;2022-07-12T07:35:45;3.53;;;2.30;;
53391;SDS011;41667;51.922;8.850;2022-07-12T07:38:10;2.83;;;2.63;;
53391;SDS011;41667;51.922;8.850;2022-07-12T07:40:36;2.03;;;1.92;;
53391;SDS011;41667;51.922;8.850;2022-07-12T07:43:01;2.17;;;2.00;;
53391;SDS011;41667;51.922;8.850;2022-07-12T07:45:26;1.80;;;1.70;;
53391;SDS011;41667;51.922;8.850;2022-07-12T07:47:51;1.83;;;1.73;;
53391;SDS011;41667;51.922;8.850;2022-07-12T07:50:16;1.77;;;1.67;;
53391;SDS011;41667;51.922;8.850;2022-07-12T07:52:41;4.80;;;1.90;;
53391;SDS011;41667;51.922;8.850;2022-07-12T07:55:07;1.80;;;1.70;;
53391;SDS011;41667;51.922;8.850;2022-07-12T07:57:32;1.98;;;1.88;;
53391;SDS011;41667;51.922;8.850;2022-07-12T07:59:57;1.93;;;1.83;;
53391;SDS011;41667;51.922;8.850;2022-07-12T08:02:22;1.60;;;1.55;;
53391;SDS011;41667;51.922;8.850;2022-07-12T08:04:47;1.63;;;1.53;;
53391;SDS011;41667;51.922;8.850;2022-07-12T08:07:13;1.95;;;1.85;;
53391;SDS011;41667;51.922;8.850;2022-07-12T08:09:38;1.33;;;1.27;;
53391;SDS011;41667;51.922;8.850;2022-07-12T08:12:04;1.73;;;1.63;;
53391;SDS011;41667;51.922;8.850;2022-07-12T08:14:29;1.98;;;1.88;;
53391;SDS011;41667;51.922;8.850;2022-07-12T08:16:54;1.57;;;1.50;;
53391;SDS011;41667;51.922;8.850;2022-07-12T08:19:19;1.20;;;1.20;;
53391;SDS011;41667;51.922;8.850;2022-07-12T08:21:44;1.60;;;1.50;;
53391;SDS011;41667;51.922;8.850;2022-07-12T08:24:09;1.52;;;1.42;;
53391;SDS011;41667;51.922;8.850;2022-07-12T08:26:35;3.38;;;1.45;;
53391;SDS011;41667;51.922;8.850;2022-07-12T08:29:00;1.73;;;1.50;;
53391;SDS011;41667;51.922;8.850;2022-07-12T08:31:25;1.57;;;1.50;;
53391;SDS011;41667;51.922;8.850;2022-07-12T08:33:51;2.55;;;2.10;;
53391;SDS011;41667;51.922;8.850;2022-07-12T08:36:16;2.20;;;2.10;;
53391;SDS011;41667;51.922;8.850;2022-07-12T08:38:41;2.03;;;1.93;;
53391;SDS011;41667;51.922;8.850;2022-07-12T08:41:09;1.88;;;1.48;;
53391;SDS011;41667;51.922;8.850;2022-07-12T08:43:35;1.95;;;1.67;;
53391;SDS011;41667;51.922;8.850;2022-07-12T08:46:07;1.77;;;1.60;;
53391;SDS011;41667;51.922;8.850;2022-07-12T08:48:33;1.10;;;1.10;;
53391;SDS011;41667;51.922;8.850;2022-07-12T08:51:08;1.70;;;1.60;;
53391;SDS011;41667;51.922;8.850;2022-07-12T08:53:34;1.35;;;1.35;;
53391;SDS011;41667;51.922;8.850;2022-07-12T08:55:59;1.33;;;1.33;;
53391;SDS011;41667;51.922;8.850;2022-07-12T08:58:25;1.80;;;1.70;;
53391;SDS011;41667;51.922;8.850;2022-07-12T09:00:50;1.80;;;1.70;;
53391;SDS011;41667;51.922;8.850;2022-07-12T09:03:15;1.90;;;1.35;;
53391;SDS011;41667;51.922;8.850;2022-07-12T09:08:16;2.75;;;1.48;;
53391;SDS011;41667;51.922;8.850;2022-07-12T09:11:01;1.20;;;1.20;;
53391;SDS011;41667;51.922;8.850;2022-07-12T09:13:46;2.50;;;1.48;;
53391;SDS011;41667;51.922;8.850;2022-07-12T09:16:13;2.20;;;1.40;;
53391;SDS011;41667;51.922;8.850;2022-07-12T09:18:39;1.63;;;1.52;;
53391;SDS011;41667;51.922;8.850;2022-07-12T09:21:04;1.30;;;1.30;;
53391;SDS011;41667;51.922;8.850;2022-07-12T09:23:29;1.63;;;1.42;;
53391;SDS011;41667;51.922;8.850;2022-07-12T09:25:54;3.20;;;1.27;;
53391;SDS011;41667;51.922;8.850;2022-07-12T09:28:19;1.73;;;1.63;;
53391;SDS011;41667;51.922;8.850;2022-07-12T09:30:49;1.58;;;1.48;;
53391;SDS011;41667;51.922;8.850;2022-07-12T09:33:17;1.98;;;1.10;;
53391;SDS011;41667;51.922;8.850;2022-07-12T09:36:01;1.10;;;1.10;;
53391;SDS011;41667;51.922;8.850;2022-07-12T09:38:54;1.00;;;1.00;;
53391;SDS011;41667;51.922;8.850;2022-07-12T09:41:19;1.10;;;1.00;;
53391;SDS011;41667;51.922;8.850;2022-07-12T09:43:44;1.98;;;1.20;;
53391;SDS011;41667;51.922;8.850;2022-07-12T09:46:10;1.67;;;1.10;;
53391;SDS011;41667;51.922;8.850;2022-07-12T09:48:35;1.15;;;1.15;;
53391;SDS011;41667;51.922;8.850;2022-07-12T09:51:01;1.35;;;1.15;;
53391;SDS011;41667;51.922;8.850;2022-07-12T09:53:27;0.90;;;0.90;;
53391;SDS011;41667;51.922;8.850;2022-07-12T09:55:53;3.03;;;0.93;;
53391;SDS011;41667;51.922;8.850;2022-07-12T09:58:21;0.82;;;0.80;;
53391;SDS011;41667;51.922;8.850;2022-07-12T10:00:47;2.13;;;0.80;;
53391;SDS011;41667;51.922;8.850;2022-07-12T10:03:13;2.65;;;1.00;;
53391;SDS011;41667;51.922;8.850;2022-07-12T10:05:40;2.20;;;0.82;;
53391;SDS011;41667;51.922;8.850;2022-07-12T10:08:06;1.48;;;0.90;;
53391;SDS011;41667;51.922;8.850;2022-07-12T10:10:32;1.45;;;0.80;;
53391;SDS011;41667;51.922;8.850;2022-07-12T10:12:58;2.90;;;1.05;;
53391;SDS011;41667;51.922;8.850;2022-07-12T10:15:24;0.70;;;0.70;;
53391;SDS011;41667;51.922;8.850;2022-07-12T10:17:53;1.52;;;1.52;;
53391;SDS011;41667;51.922;8.850;2022-07-12T10:20:20;2.83;;;0.82;;
53391;SDS011;41667;51.922;8.850;2022-07-12T10:22:47;1.83;;;0.70;;
53391;SDS011;41667;51.922;8.850;2022-07-12T10:27:50;0.90;;;0.90;;
53391;SDS011;41667;51.922;8.850;2022-07-12T10:30:16;1.10;;;0.60;;
53391;SDS011;41667;51.922;8.850;2022-07-12T10:32:42;1.65;;;0.80;;
53391;SDS011;41667;51.922;8.850;2022-07-12T10:35:12;0.73;;;0.73;;
53391;SDS011;41667;51.922;8.850;2022-07-12T10:37:38;0.55;;;0.55;;
53391;SDS011;41667;51.922;8.850;2022-07-12T10:40:13;0.60;;;0.60;;
53391;SDS011;41667;51.922;8.850;2022-07-12T10:42:39;1.20;;;1.10;;
53391;SDS011;41667;51.922;8.850;2022-07-12T10:45:09;0.68;;;0.68;;
53391;SDS011;41667;51.922;8.850;2022-07-12T10:47:54;0.80;;;0.80;;
53391;SDS011;41667;51.922;8.850;2022-07-12T10:50:19;0.85;;;0.85;;
53391;SDS011;41667;51.922;8.850;2022-07-12T10:52:45;1.17;;;0.60;;
53391;SDS011;41667;51.922;8.850;2022-07-12T10:57:45;0.93;;;0.75;;
53391;SDS011;41667;51.922;8.850;2022-07-12T11:00:12;0.60;;;0.60;;
53391;SDS011;41667;51.922;8.850;2022-07-12T11:02:38;0.40;;;0.40;;
53391;SDS011;41667;51.922;8.850;2022-07-12T11:05:03;0.57;;;0.57;;
53391;SDS011;41667;51.922;8.850;2022-07-12T11:07:29;0.52;;;0.52;;
53391;SDS011;41667;51.922;8.850;2022-07-12T11:09:54;0.77;;;0.60;;
53391;SDS011;41667;51.922;8.850;2022-07-12T11:12:20;0.68;;;0.68;;
53391;SDS011;41667;51.922;8.850;2022-07-12T11:14:45;0.98;;;0.80;;
53391;SDS011;41667;51.922;8.850;2022-07-12T11:17:10;0.60;;;0.60;;
53391;SDS011;41667;51.922;8.850;2022-07-12T11:19:35;0.40;;;0.40;;
53391;SDS011;41667;51.922;8.850;2022-07-12T11:22:00;0.85;;;0.50;;
53391;SDS011;41667;51.922;8.850;2022-07-12T11:24:30;0.70;;;0.70;;
53391;SDS011;41667;51.922;8.850;2022-07-12T11:26:55;0.90;;;0.60;;
53391;SDS011;41667;51.922;8.850;2022-07-12T11:29:20;0.70;;;0.70;;
53391;SDS011;41667;51.922;8.850;2022-07-12T11:31:46;1.27;;;0.90;;
53391;SDS011;41667;51.922;8.850;2022-07-12T11:34:21;0.60;;;0.60;;
53391;SDS011;41667;51.922;8.850;2022-07-12T11:36:47;0.77;;;0.77;;
53391;SDS011;41667;51.922;8.850;2022-07-12T11:39:12;0.45;;;0.45;;
53391;SDS011;41667;51.922;8.850;2022-07-12T11:41:37;0.60;;;0.60;;
53391;SDS011;41667;51.922;8.850;2022-07-12T11:44:03;2.72;;;1.25;;
53391;SDS011;41667;51.922;8.850;2022-07-12T11:46:28;0.60;;;0.60;;
53391;SDS011;41667;51.922;8.850;2022-07-12T11:48:53;0.65;;;0.65;;
53391;SDS011;41667;51.922;8.850;2022-07-12T11:51:18;0.60;;;0.60;;
53391;SDS011;41667;51.922;8.850;2022-07-12T11:53:43;0.65;;;0.60;;
53391;SDS011;41667;51.922;8.850;2022-07-12T11:56:15;0.60;;;0.60;;
53391;SDS011;41667;51.922;8.850;2022-07-12T11:58:41;1.27;;;0.60;;
53391;SDS011;41667;51.922;8.850;2022-07-12T12:01:12;1.05;;;0.50;;
53391;SDS011;41667;51.922;8.850;2022-07-12T12:03:46;0.50;;;0.50;;
53391;SDS011;41667;51.922;8.850;2022-07-12T12:06:11;1.95;;;0.60;;
53391;SDS011;41667;51.922;8.850;2022-07-12T12:08:36;0.50;;;0.50;;
53391;SDS011;41667;51.922;8.850;2022-07-12T12:11:01;1.40;;;0.65;;
53391;SDS011;41667;51.922;8.850;2022-07-12T12:13:28;2.10;;;0.60;;
53391;SDS011;41667;51.922;8.850;2022-07-12T12:21:07;0.75;;;0.60;;
53391;SDS011;41667;51.922;8.850;2022-07-12T12:23:32;0.50;;;0.50;;
53391;SDS011;41667;51.922;8.850;2022-07-12T12:28:45;1.38;;;0.60;;
53391;SDS011;41667;51.922;8.850;2022-07-12T12:31:11;0.80;;;0.80;;
53391;SDS011;41667;51.922;8.850;2022-07-12T12:33:37;0.60;;;0.60;;
53391;SDS011;41667;51.922;8.850;2022-07-12T12:38:47;1.65;;;0.52;;
53391;SDS011;41667;51.922;8.850;2022-07-12T12:41:12;0.60;;;0.60;;
53391;SDS011;41667;51.922;8.850;2022-07-12T12:43:38;0.77;;;0.50;;
53391;SDS011;41667;51.922;8.850;2022-07-12T12:46:04;1.45;;;0.55;;
53391;SDS011;41667;51.922;8.850;2022-07-12T12:48:30;0.43;;;0.43;;
53391;SDS011;41667;51.922;8.850;2022-07-12T12:51:06;0.60;;;0.60;;
53391;SDS011;41667;51.922;8.850;2022-07-12T12:53:31;1.58;;;0.80;;
53391;SDS011;41667;51.922;8.850;2022-07-12T12:55:57;0.70;;;0.70;;
53391;SDS011;41667;51.922;8.850;2022-07-12T12:58:23;0.90;;;0.68;;
53391;SDS011;41667;51.922;8.850;2022-07-12T13:00:49;0.77;;;0.68;;
53391;SDS011;41667;51.922;8.850;2022-07-12T13:03:16;0.50;;;0.50;;
53391;SDS011;41667;51.922;8.850;2022-07-12T13:05:42;0.73;;;0.73;;
53391;SDS011;41667;51.922;8.850;2022-07-12T13:08:08;0.52;;;0.52;;
53391;SDS011;41667;51.922;8.850;2022-07-12T13:10:34;0.55;;;0.55;;
53391;SDS011;41667;51.922;8.850;2022-07-12T13:12:59;1.17;;;0.68;;
53391;SDS011;41667;51.922;8.850;2022-07-12T13:15:25;1.90;;;0.90;;
53391;SDS011;41667;51.922;8.850;2022-07-12T13:17:51;0.75;;;0.75;;
53391;SDS011;41667;51.922;8.850;2022-07-12T13:20:16;0.65;;;0.65;;
53391;SDS011;41667;51.922;8.850;2022-07-12T13:22:43;0.60;;;0.60;;
53391;SDS011;41667;51.922;8.850;2022-07-12T13:25:10;0.98;;;0.60;;
53391;SDS011;41667;51.922;8.850;2022-07-12T13:27:36;1.27;;;0.80;;
53391;SDS011;41667;51.922;8.850;2022-07-12T13:30:01;0.75;;;0.70;;
53391;SDS011;41667;51.922;8.850;2022-07-12T13:32:26;1.08;;;0.70;;
53391;SDS011;41667;51.922;8.850;2022-07-12T13:34:51;0.98;;;0.80;;
53391;SDS011;41667;51.922;8.850;2022-07-12T13:37:17;1.25;;;0.60;;
53391;SDS011;41667;51.922;8.850;2022-07-12T13:39:42;0.70;;;0.70;;
53391;SDS011;41667;51.922;8.850;2022-07-12T13:42:26;13.65;;;1.25;;
53391;SDS011;41667;51.922;8.850;2022-07-12T13:44:51;0.77;;;0.73;;
53391;SDS011;41667;51.922;8.850;2022-07-12T13:47:18;0.60;;;0.60;;
53391;SDS011;41667;51.922;8.850;2022-07-12T13:49:44;0.70;;;0.70;;
53391;SDS011;41667;51.922;8.850;2022-07-12T13:52:09;0.93;;;0.80;;
53391;SDS011;41667;51.922;8.850;2022-07-12T13:54:34;0.70;;;0.70;;
53391;SDS011;41667;51.922;8.850;2022-07-12T13:56:59;0.73;;;0.70;;
53391;SDS011;41667;51.922;8.850;2022-07-12T13:59:24;0.77;;;0.63;;
53391;SDS011;41667;51.922;8.850;2022-07-12T14:01:49;0.93;;;0.70;;
53391;SDS011;41667;51.922;8.850;2022-07-12T14:04:14;4.35;;;0.63;;
53391;SDS011;41667;51.922;8.850;2022-07-12T14:06:40;2.03;;;0.60;;
53391;SDS011;41667;51.922;8.850;2022-07-12T14:09:05;0.50;;;0.50;;
53391;SDS011;41667;51.922;8.850;2022-07-12T14:11:31;0.50;;;0.50;;
53391;SDS011;41667;51.922;8.850;2022-07-12T14:13:56;0.98;;;0.50;;
53391;SDS011;41667;51.922;8.850;2022-07-12T14:16:21;1.47;;;0.83;;
53391;SDS011;41667;51.922;8.850;2022-07-12T14:18:47;0.50;;;0.50;;
53391;SDS011;41667;51.922;8.850;2022-07-12T14:21:12;0.53;;;0.50;;
53391;SDS011;41667;51.922;8.850;2022-07-12T14:23:37;1.40;;;0.73;;
53391;SDS011;41667;51.922;8.850;2022-07-12T14:26:02;1.07;;;0.50;;
53391;SDS011;41667;51.922;8.850;2022-07-12T14:28:27;0.80;;;0.40;;
53391;SDS011;41667;51.922;8.850;2022-07-12T14:30:53;0.57;;;0.57;;
53391;SDS011;41667;51.922;8.850;2022-07-12T14:33:18;1.95;;;0.82;;
53391;SDS011;41667;51.922;8.850;2022-07-12T14:35:43;0.50;;;0.50;;
53391;SDS011;41667;51.922;8.850;2022-07-12T14:38:08;0.73;;;0.55;;
53391;SDS011;41667;51.922;8.850;2022-07-12T14:40:33;0.80;;;0.80;;
53391;SDS011;41667;51.922;8.850;2022-07-12T14:42:58;0.60;;;0.60;;
53391;SDS011;41667;51.922;8.850;2022-07-12T14:45:24;3.67;;;0.70;;
53391;SDS011;41667;51.922;8.850;2022-07-12T14:47:49;0.60;;;0.60;;
53391;SDS011;41667;51.922;8.850;2022-07-12T14:50:14;0.47;;;0.47;;
53391;SDS011;41667;51.922;8.850;2022-07-12T14:52:39;0.60;;;0.60;;
53391;SDS011;41667;51.922;8.850;2022-07-12T14:55:05;0.60;;;0.60;;
53391;SDS011;41667;51.922;8.850;2022-07-12T14:57:30;0.60;;;0.60;;
53391;SDS011;41667;51.922;8.850;2022-07-12T14:59:55;2.53;;;0.60;;
53391;SDS011;41667;51.922;8.850;2022-07-12T15:02:20;0.70;;;0.50;;